Poplar, Wisconsin
Current Conditions -  °F | °C
As of 8:33 AM on Sunday 25 Jan 2015 (Local Time) from KDYT Reporting Station
Light Snow Light Snow  
Wind Chill: 13°   Ceiling: 2300
Heat Index: 25°   Visibility: 7mi
Dew Point: 19°   Wind: 13mph
Humidity: 80%   Direction: 70°ENE
Pressure: 30.04"   Gusts: 25mph
Location:  46.58°N, 91.8°W
Report Text: KDYT 251433Z AUTO 07011G22KT 7SM -SN SCT013 OVC023 M04/M07 A3004 RMK AO2
Loading
Personal Weather Stations






























Interactive Weather Map New forecast layout! Learn more

10-Day Weather Forecast

Advertisements
Track Severe Weather on mobile